Somerdale, New Jersey
Current Conditions -  °F | °C
As of 3:54 PM on Friday 24 Oct 2014 (Local Time) from KVAY Reporting Station
Clear Clear  
Wind Chill: 69°   Ceiling: Unl
Heat Index: 69°   Visibility: 10mi
Dew Point: 44°   Wind: 12mph
Humidity: 40%   Direction: 320°NW
Pressure: 29.79"   Gusts: 20mph
Location:  39.85°N, 75.01°W
Report Text: KVAY 241954Z AUTO 32010G17KT 10SM CLR 21/07 A2979 RMK AO2 SLP086 T02060067
Loading
Personal Weather Stations






























Interactive Weather Map
Tropical Storm Tracking
New forecast layout! Learn more

10-Day Weather Forecast

Advertisements
Track Severe Weather on mobile